London Airport
CYXU : now visible

Airfield :











YOU CAN JOIN US ON...

 
LOGIN :

Register | Disclaimer

   EN    FR    IT 

 









Legend :    VFR   Marginal VFR   IFR   Intensive IFR   Very Intensive IFR
Visi :
Ceiling :
>= 8 km
>= 3000ft
5 to 8 km
1000 to 3000 ft
1500m to 5 km
500 to 1000 ft
800 to 1500m
200 to 500 ft
< 800m
< 200 ft
Symbols :   Thunderstorms  Fog  Heavy snow  Heavy precipitations  Wind > 20 kt







- Airport Elevation : 912 ft
- IATA code : YXU


CYXU - London

CURRENT METAR :
  • 210500Z 07002KT 15SM FEW180 16/15 A3018 RMK CI2 SLP220 DENSITY ALT 1000FT

EXPIRED METARs :
  • 210400Z 10003KT 15SM SCT180 17/15 A3018 RMK CI3 SLP219 DENSITY ALT 1200FT
  • 210300Z 08003KT 15SM SCT170 18/16 A3018 RMK AC3 SLP219 DENSITY ALT 1200FT

TAF TAF CYXU
Valid from the 21 at 00:00 until the 22 at 00:00 UTC


202338Z 2100/2124 15006KT P6SM BKN170
FM210600 VRB03KT P6SM FEW050 FEW220
PROB30 2109/2112 3/4SM BR
FM211600 20010KT P6SM SCT050 RMK NXT FCST BY 210600Z
No reported NOTAMs for that airfield.



MET'MAP, your aeronautical weather chart ! - Copyright ORBIFLY December 2007 - Disclaimer

ORBIFLY MET'MAP TEAM :

Programming & Development : Alexandra Zaïnal
Concept & Development : Baudouin d'Aumeries
Co-Development & Prog : Marc-Olivier Méhu
Technical & hardware support : Manuel Goepfert

Contact : metmap@orbifly.com




SOURCES & CREDITS :

   NOAA       Earth
Advisory